Koch Ridge, Arkansas
Current Conditions -  °F | °C
As of 10:35 PM on Wednesday 26 Nov 2014 (Local Time) from KCCA Reporting Station
Clear Clear  
Wind Chill: 36°   Ceiling: Unl
Heat Index: 41°   Visibility: 10mi
Dew Point: 27°   Wind: 8mph
Humidity: 57%   Direction: 310°NW
Pressure: 30.26"   Gusts: 18mph
Location:  35.6269°N, 92.5508°W
Report Text: KCCA 270435Z AUTO 31007G16KT 030V040 10SM CLR 05/M03 A3026 RMK AO2
Loading
Personal Weather Stations






























Interactive Weather Map New forecast layout! Learn more

10-Day Weather Forecast

Advertisements
Track Severe Weather on mobile